sensor_id;sensor_type;location;lat;lon;timestamp;temperature;humidity
27795;DHT22;15176;50.844;4.412;2023-06-22T00:02:17;24.80;99.90
27795;DHT22;15176;50.844;4.412;2023-06-22T00:04:43;24.90;99.90
27795;DHT22;15176;50.844;4.412;2023-06-22T00:07:09;24.80;99.90
27795;DHT22;15176;50.844;4.412;2023-06-22T00:09:38;24.80;99.90
27795;DHT22;15176;50.844;4.412;2023-06-22T00:12:04;24.80;99.90
27795;DHT22;15176;50.844;4.412;2023-06-22T00:14:33;24.80;99.90
27795;DHT22;15176;50.844;4.412;2023-06-22T00:16:58;24.70;99.90
27795;DHT22;15176;50.844;4.412;2023-06-22T00:19:24;24.60;99.90
27795;DHT22;15176;50.844;4.412;2023-06-22T00:21:50;24.60;99.90
27795;DHT22;15176;50.844;4.412;2023-06-22T00:24:24;24.50;99.90
27795;DHT22;15176;50.844;4.412;2023-06-22T00:26:49;24.50;99.90
27795;DHT22;15176;50.844;4.412;2023-06-22T00:29:16;24.30;99.90
27795;DHT22;15176;50.844;4.412;2023-06-22T00:31:44;24.50;99.90
27795;DHT22;15176;50.844;4.412;2023-06-22T00:34:10;24.30;99.90
27795;DHT22;15176;50.844;4.412;2023-06-22T00:36:36;24.10;99.90
27795;DHT22;15176;50.844;4.412;2023-06-22T00:39:03;23.80;99.90
27795;DHT22;15176;50.844;4.412;2023-06-22T00:41:29;24.00;99.90
27795;DHT22;15176;50.844;4.412;2023-06-22T00:43:55;24.10;99.90
27795;DHT22;15176;50.844;4.412;2023-06-22T00:46:21;24.20;99.90
27795;DHT22;15176;50.844;4.412;2023-06-22T00:48:48;24.20;99.90
27795;DHT22;15176;50.844;4.412;2023-06-22T00:51:14;24.30;99.90
27795;DHT22;15176;50.844;4.412;2023-06-22T00:53:41;24.30;99.90
27795;DHT22;15176;50.844;4.412;2023-06-22T00:56:08;24.30;99.90
27795;DHT22;15176;50.844;4.412;2023-06-22T00:58:35;24.30;99.90
27795;DHT22;15176;50.844;4.412;2023-06-22T01:01:01;24.50;99.90
27795;DHT22;15176;50.844;4.412;2023-06-22T01:03:27;24.50;99.90
27795;DHT22;15176;50.844;4.412;2023-06-22T01:06:02;24.40;99.90
27795;DHT22;15176;50.844;4.412;2023-06-22T01:08:48;24.40;99.90
27795;DHT22;15176;50.844;4.412;2023-06-22T01:11:22;24.50;99.90
27795;DHT22;15176;50.844;4.412;2023-06-22T01:14:06;24.50;99.90
27795;DHT22;15176;50.844;4.412;2023-06-22T01:16:38;24.70;99.90
27795;DHT22;15176;50.844;4.412;2023-06-22T01:22:00;24.90;99.90
27795;DHT22;15176;50.844;4.412;2023-06-22T01:24:31;24.90;99.90
27795;DHT22;15176;50.844;4.412;2023-06-22T01:27:32;24.90;99.90
27795;DHT22;15176;50.844;4.412;2023-06-22T01:29:59;24.60;99.90
27795;DHT22;15176;50.844;4.412;2023-06-22T01:32:32;24.60;99.90
27795;DHT22;15176;50.844;4.412;2023-06-22T01:35:03;24.50;99.90
27795;DHT22;15176;50.844;4.412;2023-06-22T01:37:29;24.60;99.90
27795;DHT22;15176;50.844;4.412;2023-06-22T01:39:58;24.60;99.90
27795;DHT22;15176;50.844;4.412;2023-06-22T01:42:25;24.60;99.90
27795;DHT22;15176;50.844;4.412;2023-06-22T01:44:53;24.60;99.90
27795;DHT22;15176;50.844;4.412;2023-06-22T01:47:20;24.60;99.90
27795;DHT22;15176;50.844;4.412;2023-06-22T01:49:46;24.60;99.90
27795;DHT22;15176;50.844;4.412;2023-06-22T01:52:11;24.50;99.90
27795;DHT22;15176;50.844;4.412;2023-06-22T01:54:39;24.50;99.90
27795;DHT22;15176;50.844;4.412;2023-06-22T01:57:05;24.30;99.90
27795;DHT22;15176;50.844;4.412;2023-06-22T01:59:39;24.30;99.90
27795;DHT22;15176;50.844;4.412;2023-06-22T02:02:10;24.30;99.90
27795;DHT22;15176;50.844;4.412;2023-06-22T02:04:46;24.30;99.90
27795;DHT22;15176;50.844;4.412;2023-06-22T02:07:14;24.50;99.90
27795;DHT22;15176;50.844;4.412;2023-06-22T02:09:44;24.50;99.90
27795;DHT22;15176;50.844;4.412;2023-06-22T02:12:12;24.30;99.90
27795;DHT22;15176;50.844;4.412;2023-06-22T02:14:39;24.10;99.90
27795;DHT22;15176;50.844;4.412;2023-06-22T02:17:07;24.00;99.90
27795;DHT22;15176;50.844;4.412;2023-06-22T02:19:37;24.00;99.90
27795;DHT22;15176;50.844;4.412;2023-06-22T02:22:04;24.00;99.90
27795;DHT22;15176;50.844;4.412;2023-06-22T02:24:30;24.20;99.90
27795;DHT22;15176;50.844;4.412;2023-06-22T02:26:58;24.10;99.90
27795;DHT22;15176;50.844;4.412;2023-06-22T02:29:23;24.00;99.90
27795;DHT22;15176;50.844;4.412;2023-06-22T02:31:49;24.00;99.90
27795;DHT22;15176;50.844;4.412;2023-06-22T02:34:16;23.80;99.90
27795;DHT22;15176;50.844;4.412;2023-06-22T02:36:45;23.80;99.90
27795;DHT22;15176;50.844;4.412;2023-06-22T02:39:20;23.80;99.90
27795;DHT22;15176;50.844;4.412;2023-06-22T02:41:50;23.70;99.90
27795;DHT22;15176;50.844;4.412;2023-06-22T02:44:17;23.60;99.90
27795;DHT22;15176;50.844;4.412;2023-06-22T02:46:43;23.80;99.90
27795;DHT22;15176;50.844;4.412;2023-06-22T02:49:09;23.70;99.90
27795;DHT22;15176;50.844;4.412;2023-06-22T02:51:39;23.50;99.90
27795;DHT22;15176;50.844;4.412;2023-06-22T02:54:05;23.40;99.90
27795;DHT22;15176;50.844;4.412;2023-06-22T02:56:31;23.50;99.90
27795;DHT22;15176;50.844;4.412;2023-06-22T02:58:57;23.40;99.90
27795;DHT22;15176;50.844;4.412;2023-06-22T03:01:30;23.40;99.90
27795;DHT22;15176;50.844;4.412;2023-06-22T03:03:59;23.30;99.90
27795;DHT22;15176;50.844;4.412;2023-06-22T03:06:24;23.40;99.90
27795;DHT22;15176;50.844;4.412;2023-06-22T03:08:59;23.60;99.90
27795;DHT22;15176;50.844;4.412;2023-06-22T03:11:25;23.60;99.90
27795;DHT22;15176;50.844;4.412;2023-06-22T03:13:51;23.50;99.90
27795;DHT22;15176;50.844;4.412;2023-06-22T03:16:18;23.50;99.90
27795;DHT22;15176;50.844;4.412;2023-06-22T03:18:44;23.40;99.90
27795;DHT22;15176;50.844;4.412;2023-06-22T03:21:10;23.40;99.90
27795;DHT22;15176;50.844;4.412;2023-06-22T03:23:36;23.30;99.90
27795;DHT22;15176;50.844;4.412;2023-06-22T03:26:02;23.30;99.90
27795;DHT22;15176;50.844;4.412;2023-06-22T03:28:30;23.30;99.90
27795;DHT22;15176;50.844;4.412;2023-06-22T03:30:59;23.40;99.90
27795;DHT22;15176;50.844;4.412;2023-06-22T03:33:24;23.30;99.90
27795;DHT22;15176;50.844;4.412;2023-06-22T03:35:51;23.20;99.90
27795;DHT22;15176;50.844;4.412;2023-06-22T03:38:17;23.10;99.90
27795;DHT22;15176;50.844;4.412;2023-06-22T03:40:44;23.10;99.90
27795;DHT22;15176;50.844;4.412;2023-06-22T03:43:10;22.90;99.90
27795;DHT22;15176;50.844;4.412;2023-06-22T03:45:35;23.20;99.90
27795;DHT22;15176;50.844;4.412;2023-06-22T03:48:01;23.40;99.90
27795;DHT22;15176;50.844;4.412;2023-06-22T03:50:27;23.20;99.90
27795;DHT22;15176;50.844;4.412;2023-06-22T03:52:58;23.20;99.90
27795;DHT22;15176;50.844;4.412;2023-06-22T03:55:24;23.20;99.90
27795;DHT22;15176;50.844;4.412;2023-06-22T03:57:49;23.20;99.90
27795;DHT22;15176;50.844;4.412;2023-06-22T04:00:15;23.10;99.90
27795;DHT22;15176;50.844;4.412;2023-06-22T04:02:41;22.90;99.90
27795;DHT22;15176;50.844;4.412;2023-06-22T04:05:09;23.00;99.90
27795;DHT22;15176;50.844;4.412;2023-06-22T04:07:35;23.00;99.90
27795;DHT22;15176;50.844;4.412;2023-06-22T04:10:06;22.90;99.90
27795;DHT22;15176;50.844;4.412;2023-06-22T04:12:34;23.10;99.90
27795;DHT22;15176;50.844;4.412;2023-06-22T04:15:00;23.30;99.90
27795;DHT22;15176;50.844;4.412;2023-06-22T04:17:26;23.30;99.90
27795;DHT22;15176;50.844;4.412;2023-06-22T04:19:52;23.10;99.90
27795;DHT22;15176;50.844;4.412;2023-06-22T04:22:17;22.90;99.90
27795;DHT22;15176;50.844;4.412;2023-06-22T04:24:44;23.00;99.90
27795;DHT22;15176;50.844;4.412;2023-06-22T04:27:09;23.30;99.90
27795;DHT22;15176;50.844;4.412;2023-06-22T04:29:35;23.40;99.90
27795;DHT22;15176;50.844;4.412;2023-06-22T04:32:01;23.30;99.90
27795;DHT22;15176;50.844;4.412;2023-06-22T04:34:31;23.40;99.90
27795;DHT22;15176;50.844;4.412;2023-06-22T04:36:57;23.30;99.90
27795;DHT22;15176;50.844;4.412;2023-06-22T04:39:22;23.10;99.90
27795;DHT22;15176;50.844;4.412;2023-06-22T04:41:49;23.10;99.90
27795;DHT22;15176;50.844;4.412;2023-06-22T04:44:18;22.80;99.90
27795;DHT22;15176;50.844;4.412;2023-06-22T04:46:53;22.80;99.90
27795;DHT22;15176;50.844;4.412;2023-06-22T04:49:20;22.80;99.90
27795;DHT22;15176;50.844;4.412;2023-06-22T04:51:46;23.10;99.90
27795;DHT22;15176;50.844;4.412;2023-06-22T04:54:12;22.50;99.90
27795;DHT22;15176;50.844;4.412;2023-06-22T04:56:38;22.40;99.90
27795;DHT22;15176;50.844;4.412;2023-06-22T04:59:06;22.40;99.90
27795;DHT22;15176;50.844;4.412;2023-06-22T05:01:32;22.70;99.90
27795;DHT22;15176;50.844;4.412;2023-06-22T05:03:58;22.50;99.90
27795;DHT22;15176;50.844;4.412;2023-06-22T05:06:27;22.50;99.90
27795;DHT22;15176;50.844;4.412;2023-06-22T05:08:56;22.80;99.90
27795;DHT22;15176;50.844;4.412;2023-06-22T05:11:28;23.00;99.90
27795;DHT22;15176;50.844;4.412;2023-06-22T05:13:56;23.20;99.90
27795;DHT22;15176;50.844;4.412;2023-06-22T05:16:22;23.50;99.90
27795;DHT22;15176;50.844;4.412;2023-06-22T05:18:53;23.60;99.90
27795;DHT22;15176;50.844;4.412;2023-06-22T05:21:25;23.70;99.90
27795;DHT22;15176;50.844;4.412;2023-06-22T05:23:51;23.50;99.90
27795;DHT22;15176;50.844;4.412;2023-06-22T05:26:18;23.00;99.90
27795;DHT22;15176;50.844;4.412;2023-06-22T05:28:44;23.20;99.90
27795;DHT22;15176;50.844;4.412;2023-06-22T05:31:14;23.30;99.90
27795;DHT22;15176;50.844;4.412;2023-06-22T05:33:41;23.40;99.90
27795;DHT22;15176;50.844;4.412;2023-06-22T05:36:07;23.40;99.90
27795;DHT22;15176;50.844;4.412;2023-06-22T05:38:33;23.50;99.90
27795;DHT22;15176;50.844;4.412;2023-06-22T05:40:59;23.50;99.90
27795;DHT22;15176;50.844;4.412;2023-06-22T05:43:24;23.50;99.90
27795;DHT22;15176;50.844;4.412;2023-06-22T05:45:50;23.40;99.90
27795;DHT22;15176;50.844;4.412;2023-06-22T05:48:16;23.00;99.90
27795;DHT22;15176;50.844;4.412;2023-06-22T05:50:42;22.70;99.90
27795;DHT22;15176;50.844;4.412;2023-06-22T05:53:08;22.80;99.90
27795;DHT22;15176;50.844;4.412;2023-06-22T05:55:34;22.90;99.90
27795;DHT22;15176;50.844;4.412;2023-06-22T05:57:59;23.20;99.90
27795;DHT22;15176;50.844;4.412;2023-06-22T06:00:25;23.20;99.90
27795;DHT22;15176;50.844;4.412;2023-06-22T06:02:51;23.40;99.90
27795;DHT22;15176;50.844;4.412;2023-06-22T06:05:16;23.60;99.90
27795;DHT22;15176;50.844;4.412;2023-06-22T06:07:42;23.70;99.90
27795;DHT22;15176;50.844;4.412;2023-06-22T06:10:09;23.70;99.90
27795;DHT22;15176;50.844;4.412;2023-06-22T06:12:35;23.50;99.90
27795;DHT22;15176;50.844;4.412;2023-06-22T06:15:01;23.40;99.90
27795;DHT22;15176;50.844;4.412;2023-06-22T06:17:27;23.40;99.90
27795;DHT22;15176;50.844;4.412;2023-06-22T06:19:53;23.30;99.90
27795;DHT22;15176;50.844;4.412;2023-06-22T06:22:19;23.40;99.90
27795;DHT22;15176;50.844;4.412;2023-06-22T06:24:48;23.60;99.90
27795;DHT22;15176;50.844;4.412;2023-06-22T06:27:14;23.70;99.90
27795;DHT22;15176;50.844;4.412;2023-06-22T06:29:39;23.70;99.90
27795;DHT22;15176;50.844;4.412;2023-06-22T06:32:06;23.70;99.90
27795;DHT22;15176;50.844;4.412;2023-06-22T06:34:31;23.50;99.90
27795;DHT22;15176;50.844;4.412;2023-06-22T06:36:57;23.40;99.90
27795;DHT22;15176;50.844;4.412;2023-06-22T06:39:23;23.50;99.90
27795;DHT22;15176;50.844;4.412;2023-06-22T06:41:49;23.50;99.90
27795;DHT22;15176;50.844;4.412;2023-06-22T06:44:15;23.50;99.90
27795;DHT22;15176;50.844;4.412;2023-06-22T06:46:41;23.70;99.90
27795;DHT22;15176;50.844;4.412;2023-06-22T06:49:07;23.70;99.90
27795;DHT22;15176;50.844;4.412;2023-06-22T06:51:33;23.70;99.90
27795;DHT22;15176;50.844;4.412;2023-06-22T06:53:59;23.70;99.90
27795;DHT22;15176;50.844;4.412;2023-06-22T06:56:24;23.30;99.90
27795;DHT22;15176;50.844;4.412;2023-06-22T06:58:51;23.50;99.90
27795;DHT22;15176;50.844;4.412;2023-06-22T07:01:17;23.60;99.90
27795;DHT22;15176;50.844;4.412;2023-06-22T07:03:43;23.80;99.90
27795;DHT22;15176;50.844;4.412;2023-06-22T07:06:09;23.70;99.90
27795;DHT22;15176;50.844;4.412;2023-06-22T07:08:34;23.90;99.90
27795;DHT22;15176;50.844;4.412;2023-06-22T07:11:01;23.70;99.90
27795;DHT22;15176;50.844;4.412;2023-06-22T07:13:27;23.70;99.90
27795;DHT22;15176;50.844;4.412;2023-06-22T07:15:53;23.80;99.90
27795;DHT22;15176;50.844;4.412;2023-06-22T07:18:19;24.10;99.90
27795;DHT22;15176;50.844;4.412;2023-06-22T07:20:45;24.30;99.90
27795;DHT22;15176;50.844;4.412;2023-06-22T07:23:10;24.30;99.90
27795;DHT22;15176;50.844;4.412;2023-06-22T07:25:37;24.50;99.90
27795;DHT22;15176;50.844;4.412;2023-06-22T07:28:05;24.60;99.90
27795;DHT22;15176;50.844;4.412;2023-06-22T07:30:33;24.60;99.90
27795;DHT22;15176;50.844;4.412;2023-06-22T07:32:59;24.70;99.90
27795;DHT22;15176;50.844;4.412;2023-06-22T07:35:29;24.70;99.90
27795;DHT22;15176;50.844;4.412;2023-06-22T07:37:54;24.50;99.90
27795;DHT22;15176;50.844;4.412;2023-06-22T07:40:23;24.50;99.90
27795;DHT22;15176;50.844;4.412;2023-06-22T07:43:01;24.50;99.90
27795;DHT22;15176;50.844;4.412;2023-06-22T07:45:27;24.30;99.90
27795;DHT22;15176;50.844;4.412;2023-06-22T07:47:55;24.10;99.90
27795;DHT22;15176;50.844;4.412;2023-06-22T07:50:21;24.10;99.90
27795;DHT22;15176;50.844;4.412;2023-06-22T07:52:49;24.10;99.90
27795;DHT22;15176;50.844;4.412;2023-06-22T07:55:16;24.30;99.90
27795;DHT22;15176;50.844;4.412;2023-06-22T07:57:41;24.40;99.90
27795;DHT22;15176;50.844;4.412;2023-06-22T08:00:08;24.50;99.90
27795;DHT22;15176;50.844;4.412;2023-06-22T08:02:40;24.30;99.90
27795;DHT22;15176;50.844;4.412;2023-06-22T08:05:07;24.40;99.90
27795;DHT22;15176;50.844;4.412;2023-06-22T08:07:37;24.40;99.90
27795;DHT22;15176;50.844;4.412;2023-06-22T08:10:04;24.30;99.90
27795;DHT22;15176;50.844;4.412;2023-06-22T08:12:30;24.30;99.90
27795;DHT22;15176;50.844;4.412;2023-06-22T08:14:56;24.10;99.90
27795;DHT22;15176;50.844;4.412;2023-06-22T08:17:23;24.30;99.90
27795;DHT22;15176;50.844;4.412;2023-06-22T08:19:49;24.40;99.90
27795;DHT22;15176;50.844;4.412;2023-06-22T08:22:16;24.40;99.90
27795;DHT22;15176;50.844;4.412;2023-06-22T08:24:44;24.50;99.90
27795;DHT22;15176;50.844;4.412;2023-06-22T08:27:12;24.40;99.90
27795;DHT22;15176;50.844;4.412;2023-06-22T08:29:40;24.40;99.90
27795;DHT22;15176;50.844;4.412;2023-06-22T08:32:11;24.10;99.90
27795;DHT22;15176;50.844;4.412;2023-06-22T08:34:37;24.10;99.90
27795;DHT22;15176;50.844;4.412;2023-06-22T08:37:08;24.10;99.90
27795;DHT22;15176;50.844;4.412;2023-06-22T08:39:37;23.80;99.90
27795;DHT22;15176;50.844;4.412;2023-06-22T08:42:07;23.80;99.90
27795;DHT22;15176;50.844;4.412;2023-06-22T08:44:36;23.80;99.90
27795;DHT22;15176;50.844;4.412;2023-06-22T08:47:02;23.70;99.90
27795;DHT22;15176;50.844;4.412;2023-06-22T08:49:29;23.70;99.90
27795;DHT22;15176;50.844;4.412;2023-06-22T08:51:54;23.80;99.90
27795;DHT22;15176;50.844;4.412;2023-06-22T08:54:22;23.80;99.90
27795;DHT22;15176;50.844;4.412;2023-06-22T08:56:48;23.90;99.90
27795;DHT22;15176;50.844;4.412;2023-06-22T08:59:13;23.90;99.90
27795;DHT22;15176;50.844;4.412;2023-06-22T09:01:39;23.90;99.90
27795;DHT22;15176;50.844;4.412;2023-06-22T09:04:05;24.00;99.90
27795;DHT22;15176;50.844;4.412;2023-06-22T09:06:32;24.00;99.90
27795;DHT22;15176;50.844;4.412;2023-06-22T09:08:58;24.00;99.90
27795;DHT22;15176;50.844;4.412;2023-06-22T09:11:27;24.00;99.90
27795;DHT22;15176;50.844;4.412;2023-06-22T09:13:53;24.00;99.90
27795;DHT22;15176;50.844;4.412;2023-06-22T09:16:19;24.10;99.90
27795;DHT22;15176;50.844;4.412;2023-06-22T09:18:48;24.20;99.90
27795;DHT22;15176;50.844;4.412;2023-06-22T09:21:17;24.20;99.90
27795;DHT22;15176;50.844;4.412;2023-06-22T09:23:43;24.40;99.90
27795;DHT22;15176;50.844;4.412;2023-06-22T09:26:11;24.40;99.90
27795;DHT22;15176;50.844;4.412;2023-06-22T09:28:37;24.40;99.90
27795;DHT22;15176;50.844;4.412;2023-06-22T09:31:02;24.40;99.90
27795;DHT22;15176;50.844;4.412;2023-06-22T09:33:28;24.30;99.90
27795;DHT22;15176;50.844;4.412;2023-06-22T09:35:54;24.30;99.90
27795;DHT22;15176;50.844;4.412;2023-06-22T09:38:19;24.10;99.90
27795;DHT22;15176;50.844;4.412;2023-06-22T09:40:45;24.20;99.90
27795;DHT22;15176;50.844;4.412;2023-06-22T09:43:11;24.30;99.90
27795;DHT22;15176;50.844;4.412;2023-06-22T09:45:37;24.50;99.90
27795;DHT22;15176;50.844;4.412;2023-06-22T09:48:03;24.30;99.90
27795;DHT22;15176;50.844;4.412;2023-06-22T09:50:30;24.10;99.90
27795;DHT22;15176;50.844;4.412;2023-06-22T09:52:56;23.60;99.90
27795;DHT22;15176;50.844;4.412;2023-06-22T09:55:22;23.80;99.90
27795;DHT22;15176;50.844;4.412;2023-06-22T09:57:49;24.00;99.90
27795;DHT22;15176;50.844;4.412;2023-06-22T10:00:16;23.70;99.90
27795;DHT22;15176;50.844;4.412;2023-06-22T10:02:42;23.50;99.90
27795;DHT22;15176;50.844;4.412;2023-06-22T10:05:08;23.30;99.90
27795;DHT22;15176;50.844;4.412;2023-06-22T10:07:34;23.40;99.90
27795;DHT22;15176;50.844;4.412;2023-06-22T10:10:01;23.40;99.90
27795;DHT22;15176;50.844;4.412;2023-06-22T10:12:27;23.40;99.90
27795;DHT22;15176;50.844;4.412;2023-06-22T10:14:53;23.50;99.90
27795;DHT22;15176;50.844;4.412;2023-06-22T10:17:19;23.40;99.90
27795;DHT22;15176;50.844;4.412;2023-06-22T10:19:45;23.40;99.90
27795;DHT22;15176;50.844;4.412;2023-06-22T10:22:11;23.60;99.90
27795;DHT22;15176;50.844;4.412;2023-06-22T10:24:36;23.70;99.90
27795;DHT22;15176;50.844;4.412;2023-06-22T10:27:04;23.80;99.90
27795;DHT22;15176;50.844;4.412;2023-06-22T10:29:29;23.40;99.90
27795;DHT22;15176;50.844;4.412;2023-06-22T10:31:55;23.20;99.90
27795;DHT22;15176;50.844;4.412;2023-06-22T10:34:20;23.10;99.90
27795;DHT22;15176;50.844;4.412;2023-06-22T10:36:47;23.10;99.90
27795;DHT22;15176;50.844;4.412;2023-06-22T10:39:14;22.90;99.90
27795;DHT22;15176;50.844;4.412;2023-06-22T10:41:40;22.80;99.90
27795;DHT22;15176;50.844;4.412;2023-06-22T10:44:06;22.50;99.90
27795;DHT22;15176;50.844;4.412;2023-06-22T10:46:32;22.50;99.90
27795;DHT22;15176;50.844;4.412;2023-06-22T10:48:57;22.30;99.90
27795;DHT22;15176;50.844;4.412;2023-06-22T10:51:24;22.10;99.90
27795;DHT22;15176;50.844;4.412;2023-06-22T10:53:50;22.20;99.90
27795;DHT22;15176;50.844;4.412;2023-06-22T10:56:17;22.20;99.90
27795;DHT22;15176;50.844;4.412;2023-06-22T10:58:44;22.20;99.90
27795;DHT22;15176;50.844;4.412;2023-06-22T11:01:11;22.10;99.90
27795;DHT22;15176;50.844;4.412;2023-06-22T11:03:37;22.10;99.90
27795;DHT22;15176;50.844;4.412;2023-06-22T11:06:03;22.10;99.90
27795;DHT22;15176;50.844;4.412;2023-06-22T11:08:28;21.50;99.90
27795;DHT22;15176;50.844;4.412;2023-06-22T11:10:54;21.60;99.90
27795;DHT22;15176;50.844;4.412;2023-06-22T11:13:20;21.80;99.90
27795;DHT22;15176;50.844;4.412;2023-06-22T11:15:46;21.80;99.90
27795;DHT22;15176;50.844;4.412;2023-06-22T11:18:12;22.00;99.90
27795;DHT22;15176;50.844;4.412;2023-06-22T11:20:37;21.80;99.90
27795;DHT22;15176;50.844;4.412;2023-06-22T11:23:06;21.60;99.90
27795;DHT22;15176;50.844;4.412;2023-06-22T11:25:32;21.90;99.90
27795;DHT22;15176;50.844;4.412;2023-06-22T11:28:02;21.60;99.90
27795;DHT22;15176;50.844;4.412;2023-06-22T11:30:28;21.50;99.90
27795;DHT22;15176;50.844;4.412;2023-06-22T11:32:54;21.50;99.90
27795;DHT22;15176;50.844;4.412;2023-06-22T11:35:20;21.40;99.90
27795;DHT22;15176;50.844;4.412;2023-06-22T11:37:46;21.40;99.90
27795;DHT22;15176;50.844;4.412;2023-06-22T11:40:12;21.70;99.90
27795;DHT22;15176;50.844;4.412;2023-06-22T11:42:37;21.90;99.90
27795;DHT22;15176;50.844;4.412;2023-06-22T11:45:05;21.70;99.90
27795;DHT22;15176;50.844;4.412;2023-06-22T11:47:31;21.80;99.90
27795;DHT22;15176;50.844;4.412;2023-06-22T11:49:56;21.60;99.90
27795;DHT22;15176;50.844;4.412;2023-06-22T11:52:22;21.80;99.90
27795;DHT22;15176;50.844;4.412;2023-06-22T11:54:48;21.90;99.90
27795;DHT22;15176;50.844;4.412;2023-06-22T11:57:17;21.80;99.90
27795;DHT22;15176;50.844;4.412;2023-06-22T11:59:42;21.60;99.90
27795;DHT22;15176;50.844;4.412;2023-06-22T12:02:08;21.70;99.90
27795;DHT22;15176;50.844;4.412;2023-06-22T12:04:35;21.70;99.90
27795;DHT22;15176;50.844;4.412;2023-06-22T12:07:00;21.80;99.90
27795;DHT22;15176;50.844;4.412;2023-06-22T12:09:32;21.90;99.90
27795;DHT22;15176;50.844;4.412;2023-06-22T12:12:00;21.90;99.90
27795;DHT22;15176;50.844;4.412;2023-06-22T12:14:26;21.80;99.90
27795;DHT22;15176;50.844;4.412;2023-06-22T12:16:51;21.60;99.90
27795;DHT22;15176;50.844;4.412;2023-06-22T12:19:17;21.50;99.90
27795;DHT22;15176;50.844;4.412;2023-06-22T12:21:43;21.50;99.90
27795;DHT22;15176;50.844;4.412;2023-06-22T12:24:11;21.30;99.90
27795;DHT22;15176;50.844;4.412;2023-06-22T12:26:37;21.50;99.90
27795;DHT22;15176;50.844;4.412;2023-06-22T12:29:02;21.50;99.90
27795;DHT22;15176;50.844;4.412;2023-06-22T12:31:29;21.50;99.90
27795;DHT22;15176;50.844;4.412;2023-06-22T12:33:54;21.50;99.90
27795;DHT22;15176;50.844;4.412;2023-06-22T12:36:23;21.50;99.90
27795;DHT22;15176;50.844;4.412;2023-06-22T12:38:49;21.40;99.90
27795;DHT22;15176;50.844;4.412;2023-06-22T12:41:15;21.30;99.90
27795;DHT22;15176;50.844;4.412;2023-06-22T12:43:41;21.40;99.90
27795;DHT22;15176;50.844;4.412;2023-06-22T12:46:07;21.30;99.90
27795;DHT22;15176;50.844;4.412;2023-06-22T12:48:33;21.40;99.90
27795;DHT22;15176;50.844;4.412;2023-06-22T12:50:58;21.30;99.90
27795;DHT22;15176;50.844;4.412;2023-06-22T12:53:26;21.20;99.90
27795;DHT22;15176;50.844;4.412;2023-06-22T12:55:55;21.10;99.90
27795;DHT22;15176;50.844;4.412;2023-06-22T12:58:21;21.10;99.90
27795;DHT22;15176;50.844;4.412;2023-06-22T13:00:49;21.10;99.90
27795;DHT22;15176;50.844;4.412;2023-06-22T13:03:18;21.20;99.90
27795;DHT22;15176;50.844;4.412;2023-06-22T13:05:44;21.20;99.90
27795;DHT22;15176;50.844;4.412;2023-06-22T13:08:11;21.20;99.90
27795;DHT22;15176;50.844;4.412;2023-06-22T13:10:37;21.20;99.90
27795;DHT22;15176;50.844;4.412;2023-06-22T13:13:03;21.40;99.90
27795;DHT22;15176;50.844;4.412;2023-06-22T13:15:28;21.50;99.90
27795;DHT22;15176;50.844;4.412;2023-06-22T13:17:55;21.70;99.90
27795;DHT22;15176;50.844;4.412;2023-06-22T13:20:21;21.70;99.90
27795;DHT22;15176;50.844;4.412;2023-06-22T13:22:46;21.60;99.90
27795;DHT22;15176;50.844;4.412;2023-06-22T13:25:12;21.70;99.90
27795;DHT22;15176;50.844;4.412;2023-06-22T13:27:39;21.50;99.90
27795;DHT22;15176;50.844;4.412;2023-06-22T13:30:05;21.10;99.90
27795;DHT22;15176;50.844;4.412;2023-06-22T13:32:32;21.30;99.90
27795;DHT22;15176;50.844;4.412;2023-06-22T13:34:57;21.20;99.90
27795;DHT22;15176;50.844;4.412;2023-06-22T13:37:23;21.10;99.90
27795;DHT22;15176;50.844;4.412;2023-06-22T13:39:49;21.30;99.90
27795;DHT22;15176;50.844;4.412;2023-06-22T13:42:15;21.40;99.90
27795;DHT22;15176;50.844;4.412;2023-06-22T13:44:40;21.20;99.90
27795;DHT22;15176;50.844;4.412;2023-06-22T13:47:08;21.30;99.90
27795;DHT22;15176;50.844;4.412;2023-06-22T13:49:35;21.30;99.90
27795;DHT22;15176;50.844;4.412;2023-06-22T13:52:01;21.30;99.90
27795;DHT22;15176;50.844;4.412;2023-06-22T13:54:28;21.20;99.90
27795;DHT22;15176;50.844;4.412;2023-06-22T13:56:54;21.10;99.90
27795;DHT22;15176;50.844;4.412;2023-06-22T13:59:25;21.10;99.90
27795;DHT22;15176;50.844;4.412;2023-06-22T14:01:53;21.20;99.90
27795;DHT22;15176;50.844;4.412;2023-06-22T14:04:19;21.00;99.90
27795;DHT22;15176;50.844;4.412;2023-06-22T14:06:44;21.30;99.90
27795;DHT22;15176;50.844;4.412;2023-06-22T14:09:10;21.20;99.90
27795;DHT22;15176;50.844;4.412;2023-06-22T14:11:37;21.10;99.90
27795;DHT22;15176;50.844;4.412;2023-06-22T14:14:03;21.30;99.90
27795;DHT22;15176;50.844;4.412;2023-06-22T14:16:28;21.20;99.90
27795;DHT22;15176;50.844;4.412;2023-06-22T14:18:54;21.20;99.90
27795;DHT22;15176;50.844;4.412;2023-06-22T14:21:20;21.30;99.90
27795;DHT22;15176;50.844;4.412;2023-06-22T14:23:46;21.50;99.90
27795;DHT22;15176;50.844;4.412;2023-06-22T14:26:15;21.00;99.90
27795;DHT22;15176;50.844;4.412;2023-06-22T14:28:45;21.00;99.90
27795;DHT22;15176;50.844;4.412;2023-06-22T14:31:16;20.90;99.90
27795;DHT22;15176;50.844;4.412;2023-06-22T14:33:49;20.90;99.90
27795;DHT22;15176;50.844;4.412;2023-06-22T14:36:16;21.00;99.90
27795;DHT22;15176;50.844;4.412;2023-06-22T14:38:43;21.00;99.90
27795;DHT22;15176;50.844;4.412;2023-06-22T14:41:09;20.80;99.90
27795;DHT22;15176;50.844;4.412;2023-06-22T14:43:34;20.90;99.90
27795;DHT22;15176;50.844;4.412;2023-06-22T14:46:00;20.80;99.90
27795;DHT22;15176;50.844;4.412;2023-06-22T14:48:26;21.00;99.90
27795;DHT22;15176;50.844;4.412;2023-06-22T14:50:53;20.90;99.90
27795;DHT22;15176;50.844;4.412;2023-06-22T14:53:19;20.90;99.90
27795;DHT22;15176;50.844;4.412;2023-06-22T14:55:45;20.90;99.90
27795;DHT22;15176;50.844;4.412;2023-06-22T14:58:11;20.70;99.90
27795;DHT22;15176;50.844;4.412;2023-06-22T15:00:37;21.00;99.90
27795;DHT22;15176;50.844;4.412;2023-06-22T15:03:04;20.90;99.90
27795;DHT22;15176;50.844;4.412;2023-06-22T15:05:32;20.80;99.90
27795;DHT22;15176;50.844;4.412;2023-06-22T15:07:57;21.00;99.90
27795;DHT22;15176;50.844;4.412;2023-06-22T15:10:24;21.10;99.90
27795;DHT22;15176;50.844;4.412;2023-06-22T15:12:50;21.10;99.90
27795;DHT22;15176;50.844;4.412;2023-06-22T15:15:15;21.10;99.90
27795;DHT22;15176;50.844;4.412;2023-06-22T15:17:41;21.10;99.90
27795;DHT22;15176;50.844;4.412;2023-06-22T15:20:07;21.20;99.90
27795;DHT22;15176;50.844;4.412;2023-06-22T15:22:33;21.30;99.90
27795;DHT22;15176;50.844;4.412;2023-06-22T15:24:59;21.30;99.90
27795;DHT22;15176;50.844;4.412;2023-06-22T15:27:24;21.40;99.90
27795;DHT22;15176;50.844;4.412;2023-06-22T15:29:50;21.30;99.90
27795;DHT22;15176;50.844;4.412;2023-06-22T15:32:16;21.30;99.90